createdAt,value
2023-08-25T00:00:34.749Z,40.28
2023-08-25T00:01:34.855Z,40.93
2023-08-25T00:02:34.734Z,40.61
2023-08-25T00:03:34.757Z,54.79
2023-08-25T00:04:34.698Z,39.64
2023-08-25T00:05:34.709Z,39.96
2023-08-25T00:06:34.711Z,41.09
2023-08-25T00:07:34.662Z,38.35
2023-08-25T00:08:34.711Z,43.02
2023-08-25T00:09:34.678Z,42.38
2023-08-25T00:10:34.642Z,37.54
2023-08-25T00:11:34.630Z,37.54
2023-08-25T00:12:34.633Z,41.73
2023-08-25T00:13:34.626Z,44.47
2023-08-25T00:14:34.634Z,39.80
2023-08-25T00:15:34.659Z,37.06
2023-08-25T00:16:34.611Z,38.67
2023-08-25T00:17:34.617Z,37.54
2023-08-25T00:18:34.612Z,37.06
2023-08-25T00:19:34.603Z,50.43
2023-08-25T00:20:34.544Z,41.41
2023-08-25T00:21:34.532Z,38.03
2023-08-25T00:22:34.526Z,44.47
2023-08-25T00:23:34.507Z,43.51
2023-08-25T00:24:34.506Z,45.28
2023-08-25T00:25:34.503Z,41.73
2023-08-25T00:26:35.509Z,38.35
2023-08-25T00:27:34.479Z,39.16
2023-08-25T00:28:34.464Z,42.06
2023-08-25T00:29:34.467Z,44.47
2023-08-25T00:30:34.445Z,41.41
2023-08-25T00:31:34.490Z,38.99
2023-08-25T00:32:34.454Z,37.06
2023-08-25T00:33:34.414Z,36.90
2023-08-25T00:34:34.432Z,44.79
2023-08-25T00:35:34.453Z,37.87
2023-08-25T00:36:34.405Z,36.25
2023-08-25T00:37:34.383Z,36.90
2023-08-25T00:38:34.375Z,37.38
2023-08-25T00:39:34.386Z,37.06
2023-08-25T00:40:34.343Z,41.89
2023-08-25T00:41:34.333Z,43.18
2023-08-25T00:42:34.324Z,41.25
2023-08-25T00:43:34.317Z,44.15
2023-08-25T00:44:34.386Z,44.15
2023-08-25T00:45:34.324Z,43.99
2023-08-25T00:46:34.331Z,41.73
2023-08-25T00:47:34.307Z,37.87
2023-08-25T00:48:34.265Z,38.03
2023-08-25T00:49:34.270Z,38.67
2023-08-25T00:50:34.281Z,50.60
2023-08-25T00:51:34.276Z,44.47
2023-08-25T00:52:34.252Z,37.87
2023-08-25T00:53:34.231Z,40.28
2023-08-25T00:54:34.219Z,39.48
2023-08-25T00:55:34.205Z,37.06
2023-08-25T00:56:34.215Z,37.71
2023-08-25T00:57:34.191Z,38.19
2023-08-25T00:58:34.232Z,36.74
2023-08-25T00:59:34.169Z,36.58
2023-08-25T01:00:34.191Z,36.42
2023-08-25T01:01:34.174Z,39.80
2023-08-25T01:02:34.201Z,36.74
2023-08-25T01:03:34.132Z,37.87
2023-08-25T01:04:34.142Z,41.73
2023-08-25T01:05:34.169Z,37.87
2023-08-25T01:06:34.113Z,42.54
2023-08-25T01:07:34.094Z,42.54
2023-08-25T01:08:34.083Z,40.93
2023-08-25T01:09:34.140Z,39.16
2023-08-25T01:10:34.061Z,41.41
2023-08-25T01:11:34.050Z,40.12
2023-08-25T01:12:34.095Z,37.06
2023-08-25T01:13:34.092Z,39.16
2023-08-25T01:14:34.018Z,40.93
2023-08-25T01:15:34.010Z,36.58
2023-08-25T01:16:34.084Z,37.71
2023-08-25T01:17:34.024Z,40.44
2023-08-25T01:18:33.981Z,38.19
2023-08-25T01:19:33.972Z,38.67
2023-08-25T01:20:34.001Z,39.96
2023-08-25T01:21:33.950Z,37.87
2023-08-25T01:22:33.960Z,37.22
2023-08-25T01:23:33.945Z,37.06
2023-08-25T01:24:33.990Z,37.54
2023-08-25T01:25:33.940Z,43.51
2023-08-25T01:26:34.077Z,38.51
2023-08-25T01:27:33.914Z,45.12
2023-08-25T01:28:33.945Z,42.54
2023-08-25T01:29:33.888Z,41.25
2023-08-25T01:30:33.974Z,42.70
2023-08-25T01:31:33.896Z,50.11
2023-08-25T01:32:33.907Z,40.93
2023-08-25T01:33:33.842Z,37.38
2023-08-25T01:34:33.838Z,38.35
2023-08-25T01:35:33.876Z,38.03
2023-08-25T01:36:34.037Z,40.28
2023-08-25T01:37:33.828Z,38.67
2023-08-25T01:38:33.790Z,38.67
2023-08-25T01:39:33.803Z,42.54
2023-08-25T01:40:33.795Z,39.16
2023-08-25T01:41:33.757Z,40.12
2023-08-25T01:42:33.750Z,40.44
2023-08-25T01:43:33.758Z,41.89
2023-08-25T01:44:33.727Z,38.67
2023-08-25T01:45:33.730Z,37.87
2023-08-25T01:46:33.784Z,41.25
2023-08-25T01:47:33.824Z,43.02
2023-08-25T01:48:33.730Z,45.76
2023-08-25T01:49:33.702Z,38.19
2023-08-25T01:50:33.672Z,37.06
2023-08-25T01:51:33.724Z,37.54
2023-08-25T01:52:33.679Z,41.89
2023-08-25T01:53:33.639Z,39.48
2023-08-25T01:54:33.645Z,38.99
2023-08-25T01:55:33.676Z,38.83
2023-08-25T01:56:33.600Z,43.99
2023-08-25T01:57:34.620Z,39.64
2023-08-25T01:58:33.597Z,40.12
2023-08-25T01:59:33.594Z,39.64
2023-08-25T02:00:33.583Z,39.64
2023-08-25T02:01:33.563Z,39.96
2023-08-25T02:02:33.609Z,38.83
2023-08-25T02:03:33.545Z,40.28
2023-08-25T02:04:33.528Z,38.03
2023-08-25T02:05:33.556Z,39.16
2023-08-25T02:06:33.570Z,40.77
2023-08-25T02:07:33.546Z,39.80
2023-08-25T02:08:33.502Z,42.70
2023-08-25T02:09:33.512Z,38.99
2023-08-25T02:10:33.605Z,39.48
2023-08-25T02:11:33.480Z,40.77
2023-08-25T02:12:33.465Z,39.96
2023-08-25T02:13:33.454Z,39.64
2023-08-25T02:14:33.452Z,42.54
2023-08-25T02:15:34.514Z,40.93
2023-08-25T02:16:33.468Z,42.06
2023-08-25T02:17:33.449Z,43.99
2023-08-25T02:18:33.411Z,42.86
2023-08-25T02:19:33.373Z,39.16
2023-08-25T02:20:33.371Z,38.83
2023-08-25T02:21:33.370Z,42.86
2023-08-25T02:22:33.359Z,42.22
2023-08-25T02:23:33.368Z,39.48
2023-08-25T02:24:33.364Z,41.41
2023-08-25T02:25:33.319Z,42.54
2023-08-25T02:26:33.313Z,41.41
2023-08-25T02:27:33.312Z,48.18
2023-08-25T02:28:33.370Z,44.15
2023-08-25T02:29:33.278Z,40.44
2023-08-25T02:30:33.269Z,44.31
2023-08-25T02:31:33.311Z,42.22
2023-08-25T02:32:33.292Z,41.89
2023-08-25T02:33:33.243Z,41.73
2023-08-25T02:34:33.255Z,44.31
2023-08-25T02:35:33.233Z,43.18
2023-08-25T02:36:33.260Z,48.50
2023-08-25T02:37:33.226Z,47.86
2023-08-25T02:38:33.195Z,45.44
2023-08-25T02:39:33.194Z,41.41
2023-08-25T02:40:33.163Z,41.25
2023-08-25T02:41:34.176Z,43.67
2023-08-25T02:42:33.170Z,44.96
2023-08-25T02:43:33.186Z,43.99
2023-08-25T02:44:33.148Z,42.54
2023-08-25T02:46:05.611Z,43.99
2023-08-25T02:46:33.132Z,44.47
2023-08-25T02:47:33.169Z,45.12
2023-08-25T02:48:33.156Z,45.44
2023-08-25T02:49:33.127Z,43.99
2023-08-25T02:50:33.112Z,43.51
2023-08-25T02:51:33.169Z,41.89
2023-08-25T02:52:33.139Z,43.99
2023-08-25T02:53:33.097Z,41.41
2023-08-25T02:54:33.109Z,40.77
2023-08-25T02:55:33.048Z,39.96
2023-08-25T02:56:33.077Z,44.79
2023-08-25T02:57:33.064Z,45.76
2023-08-25T02:58:33.032Z,46.73
2023-08-25T02:59:33.040Z,46.41
2023-08-25T03:00:33.067Z,45.76
2023-08-25T03:01:33.026Z,46.25
2023-08-25T03:02:33.035Z,46.57
2023-08-25T03:03:32.997Z,48.18
2023-08-25T03:04:32.968Z,45.76
2023-08-25T03:05:33.010Z,44.15
2023-08-25T03:06:32.934Z,47.86
2023-08-25T03:07:32.929Z,41.41
2023-08-25T03:08:32.960Z,43.67
2023-08-25T03:09:32.929Z,43.83
2023-08-25T03:10:34.012Z,41.25
2023-08-25T03:11:32.911Z,42.06
2023-08-25T03:12:32.896Z,42.22
2023-08-25T03:14:33.866Z,44.96
2023-08-25T03:15:32.886Z,41.25
2023-08-25T03:16:32.971Z,48.18
2023-08-25T03:17:32.854Z,49.95
2023-08-25T03:18:32.868Z,48.02
2023-08-25T03:19:32.830Z,50.92
2023-08-25T03:20:32.845Z,53.66
2023-08-25T03:21:32.800Z,45.92
2023-08-25T03:22:32.829Z,47.86
2023-08-25T03:23:32.800Z,48.02
2023-08-25T03:24:32.784Z,49.31
2023-08-25T03:25:32.790Z,47.70
2023-08-25T03:26:32.747Z,46.89
2023-08-25T03:27:32.740Z,47.86
2023-08-25T03:28:32.739Z,47.37
2023-08-25T03:29:32.767Z,47.53
2023-08-25T03:30:32.748Z,48.02
2023-08-25T03:31:32.766Z,47.05
2023-08-25T03:32:32.696Z,47.53
2023-08-25T03:33:32.733Z,48.34
2023-08-25T03:34:32.712Z,48.50
2023-08-25T03:35:32.698Z,47.05
2023-08-25T03:36:32.671Z,49.15
2023-08-25T03:37:32.647Z,47.37
2023-08-25T03:38:32.631Z,45.44
2023-08-25T03:39:32.637Z,48.34
2023-08-25T03:40:32.665Z,47.53
2023-08-25T03:41:32.630Z,49.31
2023-08-25T03:42:32.608Z,51.24
2023-08-25T03:43:32.599Z,52.53
2023-08-25T03:44:32.591Z,47.05
2023-08-25T03:45:32.574Z,43.67
2023-08-25T03:46:32.679Z,45.28
2023-08-25T03:47:32.578Z,46.57
2023-08-25T03:48:32.562Z,45.92
2023-08-25T03:49:32.553Z,54.14
2023-08-25T03:50:32.588Z,46.25
2023-08-25T03:51:32.546Z,49.31
2023-08-25T03:52:32.531Z,49.63
2023-08-25T03:53:32.507Z,48.34
2023-08-25T03:54:32.661Z,46.41
2023-08-25T03:55:32.515Z,46.57
2023-08-25T03:56:32.494Z,44.79
2023-08-25T03:57:32.474Z,46.41
2023-08-25T03:58:32.490Z,46.89
2023-08-25T03:59:32.472Z,45.28
2023-08-25T04:00:32.446Z,45.76
2023-08-25T04:01:32.427Z,46.89
2023-08-25T04:02:32.486Z,46.57
2023-08-25T04:03:32.488Z,46.73
2023-08-25T04:04:32.412Z,45.76
2023-08-25T04:05:32.392Z,47.37
2023-08-25T04:06:32.427Z,49.47
2023-08-25T04:07:32.390Z,50.11
2023-08-25T04:08:32.376Z,49.79
2023-08-25T04:09:32.355Z,46.57
2023-08-25T04:10:32.350Z,47.21
2023-08-25T04:11:32.331Z,48.18
2023-08-25T04:12:32.302Z,46.25
2023-08-25T04:13:32.324Z,49.31
2023-08-25T04:14:32.299Z,47.37
2023-08-25T04:15:32.329Z,45.76
2023-08-25T04:16:32.317Z,49.79
2023-08-25T04:17:32.305Z,49.63
2023-08-25T04:18:32.295Z,48.18
2023-08-25T04:19:32.249Z,50.92
2023-08-25T04:20:33.257Z,48.18
2023-08-25T04:21:32.287Z,47.21
2023-08-25T04:22:32.236Z,49.15
2023-08-25T04:23:32.263Z,47.70
2023-08-25T04:24:32.183Z,49.79
2023-08-25T04:25:32.195Z,47.37
2023-08-25T04:26:32.178Z,48.50
2023-08-25T04:27:32.156Z,48.34
2023-08-25T04:28:32.207Z,48.34
2023-08-25T04:29:32.131Z,50.43
2023-08-25T04:30:32.117Z,50.43
2023-08-25T04:31:32.124Z,51.08
2023-08-25T04:32:32.134Z,50.27
2023-08-25T04:33:32.093Z,48.82
2023-08-25T04:34:32.225Z,50.11
2023-08-25T04:35:32.113Z,51.08
2023-08-25T04:36:32.080Z,47.05
2023-08-25T04:37:32.052Z,48.50
2023-08-25T04:38:32.054Z,51.24
2023-08-25T04:39:32.065Z,48.18
2023-08-25T04:40:32.045Z,47.53
2023-08-25T04:41:32.032Z,51.08
2023-08-25T04:42:32.003Z,50.92
2023-08-25T04:43:32.021Z,50.92
2023-08-25T04:44:31.995Z,52.85
2023-08-25T04:45:32.006Z,52.21
2023-08-25T04:46:32.004Z,53.33
2023-08-25T04:47:32.004Z,53.33
2023-08-25T04:48:31.934Z,53.33
2023-08-25T04:49:31.944Z,50.92
2023-08-25T04:50:31.961Z,53.01
2023-08-25T04:51:31.985Z,49.63
2023-08-25T04:52:31.906Z,48.82
2023-08-25T04:53:31.897Z,48.50
2023-08-25T04:54:31.876Z,52.37
2023-08-25T04:55:31.940Z,52.37
2023-08-25T04:56:32.893Z,51.40
2023-08-25T04:57:31.864Z,52.37
2023-08-25T04:58:31.848Z,53.33
2023-08-25T04:59:31.864Z,52.37
2023-08-25T05:00:32.005Z,51.40
2023-08-25T05:01:31.897Z,50.92
2023-08-25T05:02:31.906Z,51.88
2023-08-25T05:03:31.866Z,50.92
2023-08-25T05:04:31.784Z,52.21
2023-08-25T05:05:31.787Z,55.11
2023-08-25T05:06:31.810Z,52.85
2023-08-25T05:07:31.759Z,50.43
2023-08-25T05:08:31.779Z,47.70
2023-08-25T05:09:31.751Z,50.11
2023-08-25T05:10:31.726Z,48.34
2023-08-25T05:11:31.792Z,49.79
2023-08-25T05:12:31.737Z,49.79
2023-08-25T05:13:31.753Z,50.11
2023-08-25T05:14:31.736Z,49.95
2023-08-25T05:15:31.708Z,50.11
2023-08-25T05:16:31.709Z,54.62
2023-08-25T05:17:31.678Z,51.88
2023-08-25T05:18:31.689Z,51.08
2023-08-25T05:19:31.676Z,50.43
2023-08-25T05:20:31.668Z,51.88
2023-08-25T05:21:31.660Z,52.37
2023-08-25T05:22:31.641Z,52.53
2023-08-25T05:23:31.626Z,52.21
2023-08-25T05:24:31.604Z,49.47
2023-08-25T05:25:31.598Z,53.17
2023-08-25T05:26:31.582Z,51.88
2023-08-25T05:27:31.582Z,50.27
2023-08-25T05:28:31.612Z,48.50
2023-08-25T05:29:31.566Z,46.41
2023-08-25T05:30:31.551Z,48.82
2023-08-25T05:31:31.564Z,53.33
2023-08-25T05:32:31.564Z,50.43
2023-08-25T05:33:31.696Z,49.79
2023-08-25T05:34:31.515Z,48.50
2023-08-25T05:35:31.528Z,48.02
2023-08-25T05:36:31.500Z,50.60
2023-08-25T05:37:31.489Z,52.21
2023-08-25T05:38:31.470Z,51.08
2023-08-25T05:39:31.492Z,50.60
2023-08-25T05:40:31.481Z,51.56
2023-08-25T05:41:31.486Z,53.01
2023-08-25T05:42:31.441Z,53.82
2023-08-25T05:43:31.442Z,49.63
2023-08-25T05:44:31.408Z,50.92
2023-08-25T05:45:31.410Z,51.88
2023-08-25T05:46:31.432Z,52.69
2023-08-25T05:47:32.427Z,52.69
2023-08-25T05:48:31.379Z,51.88
2023-08-25T05:49:31.354Z,52.85
2023-08-25T05:50:31.413Z,50.92
2023-08-25T05:51:31.365Z,51.08
2023-08-25T05:52:31.337Z,52.69
2023-08-25T05:53:31.361Z,52.21
2023-08-25T05:54:31.393Z,53.33
2023-08-25T05:55:31.331Z,52.05
2023-08-25T05:56:31.318Z,48.98
2023-08-25T05:57:31.319Z,51.40
2023-08-25T05:58:31.317Z,47.70
2023-08-25T05:59:31.270Z,47.70
2023-08-25T06:00:31.270Z,52.69
2023-08-25T06:01:33.326Z,53.82
2023-08-25T06:02:32.308Z,50.92
2023-08-25T06:03:31.298Z,48.66
2023-08-25T06:04:31.263Z,50.11
2023-08-25T06:05:31.228Z,50.60
2023-08-25T06:06:31.229Z,53.82
2023-08-25T06:07:31.216Z,49.95
2023-08-25T06:08:31.191Z,51.24
2023-08-25T06:09:31.197Z,49.31
2023-08-25T06:10:31.179Z,48.50
2023-08-25T06:11:31.184Z,47.05
2023-08-25T06:12:31.149Z,46.89
2023-08-25T06:13:31.143Z,48.02
2023-08-25T06:14:31.158Z,48.18
2023-08-25T06:15:31.115Z,48.98
2023-08-25T06:16:31.131Z,49.15
2023-08-25T06:17:31.090Z,49.47
2023-08-25T06:18:31.103Z,47.86
2023-08-25T06:19:31.068Z,48.66
2023-08-25T06:20:31.095Z,48.82
2023-08-25T06:21:31.051Z,48.98
2023-08-25T06:22:31.037Z,48.18
2023-08-25T06:23:31.051Z,49.31
2023-08-25T06:24:32.089Z,49.31
2023-08-25T06:25:31.029Z,48.50
2023-08-25T06:26:31.034Z,48.02
2023-08-25T06:27:30.990Z,51.24
2023-08-25T06:28:31.017Z,48.34
2023-08-25T06:29:30.976Z,51.88
2023-08-25T06:30:30.973Z,48.02
2023-08-25T06:31:31.309Z,51.88
2023-08-25T06:32:31.231Z,48.98
2023-08-25T06:33:31.045Z,52.53
2023-08-25T06:34:32.343Z,49.79
2023-08-25T06:35:31.113Z,48.34
2023-08-25T06:36:30.894Z,48.50
2023-08-25T06:37:30.892Z,48.34
2023-08-25T06:38:39.244Z,50.43
2023-08-25T06:39:32.974Z,49.15
2023-08-25T06:40:30.870Z,51.08
2023-08-25T06:41:30.929Z,54.30
2023-08-25T06:42:30.865Z,48.82
2023-08-25T06:43:30.848Z,48.18
2023-08-25T06:44:30.837Z,47.21
2023-08-25T06:45:30.902Z,49.47
2023-08-25T06:46:30.826Z,53.01
2023-08-25T06:47:30.826Z,48.82
2023-08-25T06:48:30.823Z,48.98
2023-08-25T06:49:30.781Z,50.92
2023-08-25T06:50:30.771Z,50.27
2023-08-25T06:51:30.768Z,52.37
2023-08-25T06:52:30.739Z,50.92
2023-08-25T06:53:30.766Z,51.40
2023-08-25T06:54:30.754Z,51.56
2023-08-25T06:55:30.739Z,48.98
2023-08-25T06:56:30.757Z,49.95
2023-08-25T06:57:30.722Z,53.33
2023-08-25T06:58:30.737Z,50.43
2023-08-25T06:59:30.687Z,48.50
2023-08-25T07:00:30.703Z,49.95
2023-08-25T07:01:30.696Z,48.66
2023-08-25T07:02:30.652Z,48.66
2023-08-25T07:03:32.269Z,48.34
2023-08-25T07:04:30.625Z,51.08
2023-08-25T07:05:30.647Z,50.27
2023-08-25T07:06:30.602Z,49.79
2023-08-25T07:07:30.618Z,51.40
2023-08-25T07:08:30.619Z,50.27
2023-08-25T07:09:30.612Z,48.50
2023-08-25T07:10:30.602Z,50.43
2023-08-25T07:11:30.547Z,48.82
2023-08-25T07:12:30.543Z,48.82
2023-08-25T07:13:30.558Z,53.98
2023-08-25T07:14:30.557Z,50.27
2023-08-25T07:15:30.558Z,49.31
2023-08-25T07:16:30.514Z,52.53
2023-08-25T07:17:30.548Z,49.79
2023-08-25T07:18:30.481Z,52.05
2023-08-25T07:19:30.595Z,50.27
2023-08-25T07:20:30.536Z,51.88
2023-08-25T07:21:30.495Z,52.85
2023-08-25T07:22:30.464Z,53.50
2023-08-25T07:23:30.431Z,50.76
2023-08-25T07:24:30.480Z,53.66
2023-08-25T07:25:30.426Z,50.76
2023-08-25T07:26:30.422Z,51.40
2023-08-25T07:27:30.410Z,53.33
2023-08-25T07:28:30.398Z,52.69
2023-08-25T07:29:30.392Z,51.40
2023-08-25T07:30:30.405Z,52.05
2023-08-25T07:31:30.403Z,50.11
2023-08-25T07:32:30.408Z,48.98
2023-08-25T07:33:30.334Z,49.79
2023-08-25T07:34:30.327Z,49.31
2023-08-25T07:35:30.368Z,49.15
2023-08-25T07:36:30.302Z,51.24
2023-08-25T07:37:30.333Z,52.21
2023-08-25T07:38:30.305Z,48.66
2023-08-25T07:39:30.289Z,49.31
2023-08-25T07:40:30.269Z,49.63
2023-08-25T07:41:30.289Z,51.24
2023-08-25T07:42:30.251Z,50.92
2023-08-25T07:43:30.233Z,51.40
2023-08-25T07:44:30.238Z,48.34
2023-08-25T07:45:30.236Z,48.18
2023-08-25T07:46:30.271Z,50.76
2023-08-25T07:47:30.265Z,48.50
2023-08-25T07:48:30.280Z,49.31
2023-08-25T07:49:30.176Z,50.60
2023-08-25T07:50:30.169Z,51.40
2023-08-25T07:51:39.565Z,49.31
2023-08-25T07:52:32.154Z,48.66
2023-08-25T07:53:30.144Z,48.18
2023-08-25T07:54:31.137Z,50.43
2023-08-25T07:55:30.160Z,49.31
2023-08-25T07:56:30.121Z,47.86
2023-08-25T07:57:30.145Z,49.79
2023-08-25T07:58:30.099Z,49.63
2023-08-25T07:59:31.128Z,49.63
2023-08-25T08:00:30.082Z,47.53
2023-08-25T08:01:30.095Z,48.18
2023-08-25T08:02:30.071Z,51.08
2023-08-25T08:03:30.166Z,51.40
2023-08-25T08:04:30.072Z,52.05
2023-08-25T08:05:30.046Z,53.98
2023-08-25T08:06:30.024Z,50.60
2023-08-25T08:07:30.052Z,50.60
2023-08-25T08:08:31.005Z,52.85
2023-08-25T08:09:30.080Z,52.69
2023-08-25T08:10:29.996Z,49.95
2023-08-25T08:11:29.974Z,50.76
2023-08-25T08:12:29.952Z,49.95
2023-08-25T08:13:29.942Z,49.63
2023-08-25T08:14:40.067Z,46.89
2023-08-25T08:15:31.943Z,49.79
2023-08-25T08:16:30.033Z,48.18
2023-08-25T08:17:30.947Z,51.40
2023-08-25T08:18:29.933Z,49.79
2023-08-25T08:19:29.880Z,50.60
2023-08-25T08:20:29.873Z,49.31
2023-08-25T08:21:29.946Z,50.60
2023-08-25T08:22:29.916Z,51.24
2023-08-25T08:23:29.880Z,48.98
2023-08-25T08:24:44.222Z,50.27
2023-08-25T08:25:31.844Z,48.98
2023-08-25T08:26:30.829Z,52.85
2023-08-25T08:27:29.812Z,51.40
2023-08-25T08:28:29.799Z,51.88
2023-08-25T08:29:29.830Z,51.40
2023-08-25T08:30:29.786Z,50.60
2023-08-25T08:31:29.818Z,50.43
2023-08-25T08:32:29.809Z,50.11
2023-08-25T08:33:29.769Z,49.15
2023-08-25T08:34:29.780Z,48.50
2023-08-25T08:35:29.796Z,51.72
2023-08-25T08:36:29.723Z,50.27
2023-08-25T08:37:29.707Z,50.92
2023-08-25T08:38:29.710Z,49.79
2023-08-25T08:39:29.716Z,52.85
2023-08-25T08:40:29.719Z,50.76
2023-08-25T08:41:29.667Z,48.82
2023-08-25T08:42:29.663Z,48.18
2023-08-25T08:43:29.664Z,48.50
2023-08-25T08:44:29.675Z,50.76
2023-08-25T08:45:29.685Z,50.27
2023-08-25T08:47:01.528Z,52.53
2023-08-25T08:47:29.642Z,53.17
2023-08-25T08:48:29.590Z,49.31
2023-08-25T08:49:29.606Z,48.82
2023-08-25T08:50:29.595Z,49.79
2023-08-25T08:51:29.570Z,49.63
2023-08-25T08:52:29.572Z,50.11
2023-08-25T08:53:29.644Z,47.37
2023-08-25T08:54:29.561Z,49.79
2023-08-25T08:55:29.615Z,49.63
2023-08-25T08:56:29.513Z,48.82
2023-08-25T08:57:29.542Z,49.31
2023-08-25T08:58:29.519Z,48.02
2023-08-25T08:59:29.531Z,45.28
2023-08-25T09:00:29.523Z,48.02
2023-08-25T09:01:29.475Z,48.98
2023-08-25T09:02:29.530Z,48.34
2023-08-25T09:03:29.445Z,49.31
2023-08-25T09:04:29.521Z,47.05
2023-08-25T09:05:29.466Z,49.31
2023-08-25T09:06:29.471Z,48.82
2023-08-25T09:07:29.417Z,48.66
2023-08-25T09:08:29.423Z,49.47
2023-08-25T09:09:29.476Z,49.79
2023-08-25T09:10:29.521Z,48.02
2023-08-25T09:11:29.423Z,47.05
2023-08-25T09:12:29.379Z,45.92
2023-08-25T09:13:29.390Z,50.76
2023-08-25T09:14:29.380Z,48.02
2023-08-25T09:15:32.628Z,46.73
2023-08-25T09:16:30.385Z,49.31
2023-08-25T09:17:29.372Z,47.70
2023-08-25T09:18:29.307Z,46.08
2023-08-25T09:19:29.339Z,48.02
2023-08-25T09:20:29.302Z,48.02
2023-08-25T09:21:29.314Z,44.15
2023-08-25T09:22:29.283Z,43.51
2023-08-25T09:23:29.270Z,49.47
2023-08-25T09:24:29.257Z,48.98
2023-08-25T09:25:29.313Z,48.98
2023-08-25T09:26:29.262Z,48.02
2023-08-25T09:27:29.338Z,47.53
2023-08-25T09:28:29.222Z,48.34
2023-08-25T09:29:29.204Z,49.47
2023-08-25T09:30:29.244Z,48.50
2023-08-25T09:31:29.195Z,49.31
2023-08-25T09:32:29.343Z,47.86
2023-08-25T09:33:29.162Z,48.50
2023-08-25T09:34:29.154Z,48.50
2023-08-25T09:35:29.166Z,49.95
2023-08-25T09:36:29.144Z,48.66
2023-08-25T09:37:29.194Z,49.95
2023-08-25T09:38:31.044Z,46.57
2023-08-25T09:39:29.110Z,50.11
2023-08-25T09:40:29.141Z,48.18
2023-08-25T09:41:29.177Z,47.53
2023-08-25T09:42:29.091Z,48.50
2023-08-25T09:43:31.642Z,49.47
2023-08-25T09:44:30.065Z,48.18
2023-08-25T09:45:29.053Z,48.18
2023-08-25T09:46:29.119Z,50.27
2023-08-25T09:47:29.067Z,50.43
2023-08-25T09:48:29.068Z,49.79
2023-08-25T09:49:29.032Z,49.47
2023-08-25T09:50:29.004Z,50.27
2023-08-25T09:51:29.030Z,48.82
2023-08-25T09:52:29.017Z,48.66
2023-08-25T09:53:28.978Z,48.34
2023-08-25T09:54:28.975Z,49.15
2023-08-25T09:55:28.998Z,49.79
2023-08-25T09:56:28.963Z,48.82
2023-08-25T09:57:28.982Z,48.34
2023-08-25T09:58:28.953Z,47.37
2023-08-25T09:59:28.928Z,47.86
2023-08-25T10:00:28.955Z,49.31
2023-08-25T10:01:31.348Z,46.89
2023-08-25T10:02:29.899Z,46.57
2023-08-25T10:03:28.900Z,46.89
2023-08-25T10:04:28.894Z,48.50
2023-08-25T10:05:28.929Z,49.31
2023-08-25T10:06:28.942Z,49.15
2023-08-25T10:07:28.846Z,49.63
2023-08-25T10:08:28.850Z,49.79
2023-08-25T10:09:28.836Z,50.92
2023-08-25T10:10:28.870Z,50.27
2023-08-25T10:11:28.857Z,51.56
2023-08-25T10:12:28.800Z,51.24
2023-08-25T10:13:28.798Z,49.79
2023-08-25T10:14:28.802Z,50.43
2023-08-25T10:15:28.775Z,46.73
2023-08-25T10:16:28.846Z,48.50
2023-08-25T10:17:28.773Z,50.43
2023-08-25T10:18:28.736Z,50.11
2023-08-25T10:19:29.095Z,48.66
2023-08-25T10:20:28.745Z,50.43
2023-08-25T10:21:28.723Z,49.15
2023-08-25T10:22:28.718Z,49.47
2023-08-25T10:23:28.694Z,48.98
2023-08-25T10:24:28.684Z,50.27
2023-08-25T10:25:29.707Z,50.11
2023-08-25T10:26:28.668Z,51.56
2023-08-25T10:27:28.656Z,48.66
2023-08-25T10:28:28.649Z,48.02
2023-08-25T10:29:28.646Z,48.34
2023-08-25T10:30:28.651Z,48.02
2023-08-25T10:31:28.757Z,50.11
2023-08-25T10:32:28.672Z,48.18
2023-08-25T10:33:28.618Z,49.15
2023-08-25T10:34:28.595Z,49.31
2023-08-25T10:35:28.588Z,49.31
2023-08-25T10:36:28.616Z,48.50
2023-08-25T10:37:28.943Z,48.50
2023-08-25T10:38:28.647Z,48.82
2023-08-25T10:39:28.551Z,49.31
2023-08-25T10:40:28.537Z,47.70
2023-08-25T10:41:28.633Z,50.27
2023-08-25T10:42:28.528Z,48.66
2023-08-25T10:43:30.812Z,46.73
2023-08-25T10:44:28.507Z,47.21
2023-08-25T10:45:28.567Z,51.72
2023-08-25T10:46:43.635Z,49.63
2023-08-25T10:47:30.491Z,49.95
2023-08-25T10:48:36.365Z,49.31
2023-08-25T10:49:30.487Z,50.11
2023-08-25T10:50:28.479Z,46.08
2023-08-25T10:51:28.467Z,49.31
2023-08-25T10:52:28.485Z,48.66
2023-08-25T10:53:28.420Z,50.11
2023-08-25T10:54:28.405Z,49.47
2023-08-25T10:55:28.426Z,48.02
2023-08-25T10:56:28.443Z,48.98
2023-08-25T10:57:28.424Z,47.53
2023-08-25T10:58:28.369Z,50.43
2023-08-25T10:59:28.362Z,51.88
2023-08-25T11:00:28.346Z,49.31
2023-08-25T11:01:28.403Z,52.85
2023-08-25T11:02:28.405Z,50.92
2023-08-25T11:03:28.502Z,53.01
2023-08-25T11:04:28.415Z,50.43
2023-08-25T11:05:28.305Z,51.24
2023-08-25T11:06:28.298Z,51.40
2023-08-25T11:07:28.350Z,49.63
2023-08-25T11:08:28.332Z,48.18
2023-08-25T11:09:28.346Z,49.79
2023-08-25T11:10:28.262Z,51.88
2023-08-25T11:11:28.243Z,49.79
2023-08-25T11:12:28.242Z,48.66
2023-08-25T11:13:28.275Z,50.11
2023-08-25T11:14:28.240Z,48.02
2023-08-25T11:15:28.234Z,48.50
2023-08-25T11:16:28.209Z,49.15
2023-08-25T11:17:28.239Z,48.82
2023-08-25T11:18:28.172Z,48.82
2023-08-25T11:19:28.184Z,49.31
2023-08-25T11:20:28.165Z,49.95
2023-08-25T11:21:28.154Z,49.47
2023-08-25T11:22:28.199Z,50.43
2023-08-25T11:23:28.152Z,51.24
2023-08-25T11:24:28.123Z,50.43
2023-08-25T11:25:28.108Z,48.18
2023-08-25T11:26:28.114Z,47.86
2023-08-25T11:27:28.077Z,48.34
2023-08-25T11:28:28.104Z,47.53
2023-08-25T11:29:28.072Z,51.88
2023-08-25T11:30:28.053Z,50.43
2023-08-25T11:31:28.110Z,48.18
2023-08-25T11:32:28.081Z,46.08
2023-08-25T11:33:28.026Z,44.96
2023-08-25T11:34:28.034Z,48.50
2023-08-25T11:35:28.019Z,48.66
2023-08-25T11:36:27.990Z,47.37
2023-08-25T11:37:27.983Z,44.47
2023-08-25T11:38:29.018Z,47.86
2023-08-25T11:39:27.980Z,48.82
2023-08-25T11:40:27.985Z,48.66
2023-08-25T11:41:27.958Z,48.66
2023-08-25T11:42:27.950Z,47.05
2023-08-25T11:43:27.949Z,46.89
2023-08-25T11:44:27.961Z,49.15
2023-08-25T11:45:27.914Z,48.50
2023-08-25T11:46:27.954Z,48.98
2023-08-25T11:47:27.922Z,48.50
2023-08-25T11:48:27.951Z,50.43
2023-08-25T11:49:27.888Z,48.98
2023-08-25T11:50:27.867Z,49.79
2023-08-25T11:51:27.863Z,48.98
2023-08-25T11:52:27.863Z,49.79
2023-08-25T11:53:27.849Z,57.36
2023-08-25T11:54:27.844Z,57.36
2023-08-25T11:55:27.813Z,54.62
2023-08-25T11:56:27.835Z,57.85
2023-08-25T11:57:27.800Z,57.20
2023-08-25T11:58:27.780Z,51.88
2023-08-25T11:59:27.790Z,63.16
2023-08-25T12:00:27.817Z,64.61
2023-08-25T12:01:27.818Z,63.65
2023-08-25T12:02:27.768Z,63.81
2023-08-25T12:03:27.909Z,50.27
2023-08-25T12:04:27.745Z,51.08
2023-08-25T12:05:27.756Z,47.70
2023-08-25T12:06:27.839Z,47.53
2023-08-25T12:07:27.733Z,49.15
2023-08-25T12:08:27.694Z,50.27
2023-08-25T12:09:27.675Z,46.25
2023-08-25T12:10:27.680Z,47.70
2023-08-25T12:11:27.671Z,48.34
2023-08-25T12:12:27.666Z,47.70
2023-08-25T12:13:27.663Z,48.82
2023-08-25T12:14:27.694Z,46.08
2023-08-25T12:15:27.639Z,48.66
2023-08-25T12:16:27.685Z,50.76
2023-08-25T12:17:27.651Z,50.11
2023-08-25T12:18:27.594Z,49.31
2023-08-25T12:19:27.743Z,51.24
2023-08-25T12:20:27.578Z,57.52
2023-08-25T12:21:27.583Z,56.88
2023-08-25T12:22:27.568Z,56.88
2023-08-25T12:23:27.546Z,53.17
2023-08-25T12:24:27.565Z,57.36
2023-08-25T12:25:27.529Z,50.76
2023-08-25T12:26:27.511Z,48.50
2023-08-25T12:27:27.505Z,49.79
2023-08-25T12:28:27.496Z,49.47
2023-08-25T12:29:27.509Z,48.50
2023-08-25T12:30:27.485Z,49.15
2023-08-25T12:31:27.592Z,50.43
2023-08-25T12:32:27.535Z,48.34
2023-08-25T12:33:27.458Z,48.82
2023-08-25T12:34:27.446Z,49.79
2023-08-25T12:35:27.436Z,47.70
2023-08-25T12:36:27.467Z,52.05
2023-08-25T12:37:27.416Z,48.34
2023-08-25T12:38:27.406Z,48.82
2023-08-25T12:39:27.408Z,48.98
2023-08-25T12:40:27.386Z,50.27
2023-08-25T12:41:27.385Z,48.66
2023-08-25T12:42:27.416Z,49.79
2023-08-25T12:43:27.387Z,48.66
2023-08-25T12:44:27.349Z,48.66
2023-08-25T12:45:27.401Z,49.79
2023-08-25T12:46:27.455Z,48.82
2023-08-25T12:47:27.363Z,50.60
2023-08-25T12:48:27.862Z,50.92
2023-08-25T12:49:27.351Z,52.69
2023-08-25T12:50:27.300Z,48.34
2023-08-25T12:51:29.502Z,51.72
2023-08-25T12:52:27.284Z,52.53
2023-08-25T12:53:27.276Z,51.72